Latest Weather Observations for Wagga Wagga

IDN60801

Issued at 3:05 pm EDT Saturday 25 October 2014 (issued every 30 minutes, with the page automatically refreshed every 10 minutes)

About weather observations | Map of weather stations | Latest weather observations for NSW | Other Formats
Station Details ID: 072150 Name: WAGGA WAGGA AMO Lat: -35.16 Lon: 147.46 Height: 212.0 m
Data from the previous 72 hours. | See also: Recent months at Wagga Wagga
Date/Time
EDT
Temp
°C
App
Temp
°C
Dew
Point
Rel
Hum
%
Delta-T
°C
Wind Press
QNH
hPa
Press
MSL
hPa
Rain
since 9 am
mm
Dir
 
Spd
km/h
Gust
km/h
Spd
kts
Gust
kts
25/03:00pm 32.6 30.2 4.4 17 14.9 ENE 6 15 3 8 1012.2 1012.0 0.0
25/02:31pm 29.3 22.8 4.7 21 12.8 NNE 28 48 15 26 1012.0 1011.8 0.0
25/02:30pm 29.7 23.8 3.9 19 13.3 NNE 24 48 13 26 1012.1 1011.9 0.0
25/02:00pm 30.5 28.2 5.8 21 13.2 SSE 7 17 4 9 1013.8 1013.6 0.0
25/01:30pm 31.3 28.2 3.7 17 14.3 SE 9 15 5 8 1014.0 1013.8 0.0
25/01:00pm 32.1 28.8 4.3 17 14.6 NNE 11 19 6 10 1013.9 1013.7 0.0
25/12:30pm 30.6 27.6 3.9 18 13.8 NE 9 13 5 7 1014.6 1014.3 0.0
25/12:00pm 29.9 26.9 5.9 22 12.8 NNE 11 15 6 8 1015.2 1015.0 0.0
25/11:30am 28.5 26.4 8.3 28 11.1 NNE 9 13 5 7 1015.7 1015.5 0.0
25/11:00am 26.8 25.0 9.6 34 9.6 NNE 9 13 5 7 1016.1 1015.9 0.0
25/10:30am 25.0 23.8 10.3 39 8.2 ENE 7 11 4 6 1016.3 1016.1 0.0
25/10:00am 23.3 21.7 10.3 43 7.2 NNE 9 13 5 7 1016.5 1016.3 0.0
25/09:30am 21.7 19.9 10.7 49 6.1 ENE 11 13 6 7 1016.4 1016.2 0.0
25/08:30am 18.8 17.5 10.1 57 4.7 E 7 9 4 5 1016.6 1016.4 0.0
25/08:00am 16.5 16.1 11.0 70 3.0 E 4 9 2 5 1016.3 1016.1 0.0
25/07:30am 13.7 12.6 9.9 78 2.0 ESE 6 6 3 3 1016.0 1015.8 0.0
25/07:00am 14.0 12.1 9.1 72 2.5 ESE 9 11 5 6 1015.5 1015.3 0.0
25/06:30am 11.4 10.3 8.4 82 1.5 ESE 4 9 2 5 1015.3 1015.1 0.0
25/06:00am 11.2 10.0 8.2 82 1.5 ESE 4 7 2 4 1015.0 1014.8 0.0
25/05:30am 12.6 10.9 8.4 75 2.1 ESE 7 11 4 6 1014.8 1014.6 0.0
25/05:00am 11.6 11.2 8.4 81 1.6 CALM 0 0 0 0 1014.9 1014.7 0.0
25/04:30am 12.2 11.9 8.8 80 1.7 CALM 0 0 0 0 1014.7 1014.5 0.0
25/04:00am 12.3 12.0 8.7 79 1.8 CALM 0 0 0 0 1014.6 1014.3 0.0
25/03:30am 12.1 11.8 8.7 80 1.7 CALM 0 0 0 0 1014.5 1014.2 0.0
25/03:00am 13.2 13.0 8.9 75 2.2 CALM 0 0 0 0 1014.4 1014.1 0.0
25/02:30am 14.2 13.9 8.7 69 2.8 CALM 0 0 0 0 1014.4 1014.1 0.0
25/02:00am 14.2 14.0 8.9 70 2.7 CALM 0 0 0 0 1014.4 1014.1 0.0
25/01:30am 15.2 14.8 9.9 70 2.8 ENE 2 7 1 4 1014.5 1014.2 0.0
25/01:00am 17.2 16.1 9.9 62 3.9 E 6 7 3 4 1014.6 1014.3 0.0
25/12:30am 17.3 16.0 10.0 62 3.9 ENE 7 7 4 4 1014.7 1014.5 0.0
25/12:00am 17.6 16.2 9.7 60 4.2 ENE 7 13 4 7 1014.6 1014.3 0.0
 
Date/Time
EDT
Temp
°C
App
Temp
°C
Dew
Point
Rel
Hum
%
Delta-T
°C
Wind Press
QNH
hPa
Press
MSL
hPa
Rain
since 9 am
mm
Dir
 
Spd
km/h
Gust
km/h
Spd
kts
Gust
kts
24/11:30pm 18.5 17.4 10.6 60 4.3 NE 7 9 4 5 1014.6 1014.3 0.0
24/11:00pm 19.4 19.7 10.8 57 4.7 CALM 0 0 0 0 1014.5 1014.2 0.0
24/10:30pm 20.0 20.3 10.9 55 5.0 CALM 0 0 0 0 1014.6 1014.3 0.0
24/09:30pm 21.3 21.4 10.2 49 6.1 CALM 0 0 0 0 1014.0 1013.8 0.0
24/09:00pm 22.0 20.2 9.5 45 6.8 SSE 9 11 5 6 1013.5 1013.3 0.0
24/08:30pm 22.1 20.1 10.3 47 6.5 SW 11 13 6 7 1013.0 1012.8 0.0
24/08:00pm 24.4 21.8 7.7 34 8.9 SSW 11 15 6 8 1012.4 1012.2 0.0
24/07:30pm 26.6 22.4 7.4 29 10.3 SW 19 26 10 14 1012.0 1011.8 0.0
24/07:00pm 28.6 23.4 7.2 26 11.6 WSW 24 32 13 17 1011.6 1011.4 0.0
24/06:30pm 29.7 24.9 4.9 20 13.0 WSW 19 26 10 14 1011.1 1010.9 0.0
24/06:00pm 30.7 25.2 3.9 18 13.9 WSW 22 33 12 18 1010.8 1010.6 0.0
24/05:30pm 31.3 24.7 2.3 15 14.7 W 26 33 14 18 1010.7 1010.5 0.0
24/05:00pm 31.0 25.1 3.8 18 14.1 W 24 33 13 18 1010.5 1010.2 0.0
24/04:30pm 31.5 24.1 1.9 15 14.9 W 30 41 16 22 1010.6 1010.3 0.0
24/04:00pm 32.4 25.6 2.9 15 15.2 W 28 35 15 19 1010.5 1010.2 0.0
24/03:30pm 32.9 26.1 3.3 15 15.4 W 28 35 15 19 1010.7 1010.5 0.0
24/03:00pm 33.1 27.7 4.4 16 15.2 W 22 35 12 19 1010.8 1010.6 0.0
24/02:30pm 32.8 27.6 5.5 18 14.7 WNW 22 35 12 19 1011.1 1010.9 0.0
24/02:00pm 33.1 28.5 6.4 19 14.6 NW 20 30 11 16 1011.5 1011.3 0.0
24/01:30pm 32.4 28.5 7.2 21 13.9 W 17 26 9 14 1011.8 1011.6 0.0
24/01:00pm 32.5 28.2 7.1 20 14.0 NNW 19 35 10 19 1012.3 1012.1 0.0
24/12:30pm 31.2 27.0 7.4 22 13.1 NNW 19 32 10 17 1012.8 1012.6 0.0
24/12:00pm 31.0 27.5 7.3 22 13.0 NNW 15 22 8 12 1013.3 1013.1 0.0
24/11:30am 30.3 26.3 9.2 27 11.9 N 20 32 11 17 1013.7 1013.5 0.0
24/11:00am 28.9 24.5 9.0 28 11.1 N 22 35 12 19 1014.7 1014.5 0.0
24/10:30am 28.2 22.6 8.7 29 10.8 N 28 37 15 20 1014.6 1014.3 0.0
24/10:00am 27.5 22.5 9.4 32 10.1 N 26 39 14 21 1015.0 1014.8 0.0
24/09:30am 26.3 21.9 9.1 33 9.5 NNE 22 35 12 19 1015.2 1015.0 0.0
24/09:00am 24.4 21.0 10.4 41 7.8 ENE 19 28 10 15 1015.5 1015.3 0.0
24/08:30am 22.9 19.3 10.5 45 6.9 ENE 20 26 11 14 1015.9 1015.7 0.0
24/08:00am 21.6 18.1 10.3 48 6.2 ENE 19 28 10 15 1016.0 1015.8 0.0
24/07:30am 20.9 17.4 10.3 50 5.8 ENE 19 26 10 14 1015.9 1015.7 0.0
24/07:00am 19.9 17.6 10.4 54 5.2 ENE 13 20 7 11 1015.7 1015.5 0.0
24/06:30am 19.1 18.0 10.5 57 4.7 E 7 11 4 6 1015.5 1015.3 0.0
24/06:00am 20.1 16.1 10.4 53 5.3 ENE 22 30 12 16 1015.4 1015.2 0.0
24/05:30am 19.5 16.6 11.0 58 4.7 ENE 17 22 9 12 1014.7 1014.5 0.0
24/05:00am 19.8 16.9 11.1 57 4.8 ENE 17 26 9 14 1015.1 1014.9 0.0
24/04:30am 20.2 17.4 11.2 56 5.0 ENE 17 24 9 13 1015.1 1014.9 0.0
24/04:00am 20.5 17.6 11.1 54 5.2 NE 17 24 9 13 1015.0 1014.8 0.0
24/03:30am 21.1 17.8 10.8 51 5.7 ENE 19 32 10 17 1015.2 1015.0 0.0
24/03:00am 21.1 17.6 11.0 52 5.6 ENE 20 28 11 15 1015.2 1015.0 0.0
24/02:30am 21.0 16.9 11.5 54 5.3 ENE 24 33 13 18 1015.6 1015.4 0.0
24/02:00am 21.1 17.0 11.4 54 5.4 E 24 32 13 17 1015.7 1015.5 0.0
24/01:30am 21.6 19.1 11.2 51 5.8 E 15 20 8 11 1015.8 1015.6 0.0
24/01:00am 22.2 19.2 10.7 48 6.4 ENE 17 24 9 13 1016.0 1015.8 0.0
24/12:30am 22.8 18.3 10.1 44 7.0 ENE 24 33 13 18 1015.7 1015.5 0.0
24/12:00am 23.2 17.4 9.5 41 7.5 ENE 30 39 16 21 1015.3 1015.1 0.0
 
Date/Time
EDT
Temp
°C
App
Temp
°C
Dew
Point
Rel
Hum
%
Delta-T
°C
Wind Press
QNH
hPa
Press
MSL
hPa
Rain
since 9 am
mm
Dir
 
Spd
km/h
Gust
km/h
Spd
kts
Gust
kts
23/11:30pm 23.2 18.2 9.7 42 7.4 ENE 26 37 14 20 1015.3 1015.1 0.0
23/11:00pm 23.8 17.4 9.4 40 7.9 ENE 33 46 18 25 1015.2 1015.0 0.0
23/10:30pm 24.2 17.8 9.4 39 8.1 ENE 33 44 18 24 1015.2 1015.0 0.0
23/10:00pm 25.1 19.0 8.3 34 9.1 NE 30 41 16 22 1015.1 1014.9 0.0
23/09:30pm 25.3 19.5 8.0 33 9.3 ENE 28 37 15 20 1014.6 1014.3 0.0
23/09:00pm 26.2 19.8 7.0 29 10.2 ENE 30 37 16 20 1014.2 1013.9 0.0
23/08:30pm 26.6 22.5 6.0 27 10.8 ENE 17 22 9 12 1013.5 1013.3 0.0
23/08:00pm 27.4 24.0 5.9 25 11.3 ENE 13 17 7 9 1013.1 1012.9 0.0
23/07:30pm 27.8 24.5 6.3 25 11.4 ENE 13 15 7 8 1012.7 1012.5 0.0
23/07:00pm 29.6 26.9 7.2 24 12.2 NNE 11 15 6 8 1012.5 1012.3 0.0
23/06:30pm 31.7 28.1 5.2 19 14.1 NE 13 17 7 9 1012.4 1012.2 0.0
23/06:00pm 32.3 28.7 5.1 18 14.5 NE 13 20 7 11 1012.4 1012.2 0.0
23/05:30pm 32.6 28.9 4.4 17 14.9 NE 13 17 7 9 1012.7 1012.5 0.0
23/05:00pm 32.8 29.3 3.7 16 15.2 NNW 11 15 6 8 1012.8 1012.6 0.0
23/04:30pm 32.7 28.7 2.7 15 15.4 NNE 13 24 7 13 1013.1 1012.9 0.0
23/04:00pm 33.5 29.8 4.5 16 15.4 NNW 13 22 7 12 1013.2 1013.0 0.0
23/03:30pm 32.8 29.4 5.8 18 14.6 N 13 24 7 13 1013.6 1013.4 0.0
23/03:00pm 32.2 28.9 4.5 17 14.6 NNW 11 17 6 9 1014.0 1013.8 0.0
23/02:30pm 33.0 30.0 4.1 16 15.2 N 9 15 5 8 1014.5 1014.2 0.0
23/02:00pm 31.8 30.0 7.9 22 13.3 E 7 13 4 7 1014.8 1014.6 0.0
23/01:30pm 32.0 29.6 8.8 23 13.1 NNE 11 19 6 10 1015.3 1015.1 0.0
23/01:00pm 30.7 28.0 9.0 26 12.2 ESE 13 24 7 13 1015.7 1015.5 0.0
23/12:30pm 30.8 28.8 10.0 27 11.9 E 11 19 6 10 1016.1 1015.9 0.0
23/12:00pm 30.1 28.0 11.2 31 11.0 E 13 19 7 10 1016.5 1016.3 0.0
23/11:30am 29.2 27.4 10.8 32 10.6 E 11 19 6 10 1017.0 1016.8 0.0
23/11:00am 27.9 25.8 12.4 38 9.1 E 15 19 8 10 1017.4 1017.2 0.0
23/10:30am 26.5 24.7 12.2 41 8.3 E 13 17 7 9 1017.6 1017.4 0.0
23/10:00am 25.2 23.4 12.2 44 7.5 ENE 13 17 7 9 1017.9 1017.7 0.0
23/09:30am 24.3 22.1 12.1 46 7.0 ENE 15 17 8 9 1018.0 1017.8 0.0
23/09:00am 23.1 21.2 11.8 49 6.4 E 13 19 7 10 1018.1 1017.9 0.0
23/08:30am 21.3 20.8 12.7 58 4.9 ENE 7 9 4 5 1018.3 1018.1 -
23/08:00am 19.2 17.5 12.3 64 3.9 E 13 15 7 8 1018.5 1018.3 -
23/07:30am 17.8 16.3 12.0 69 3.2 NNE 11 22 6 12 1018.5 1018.3 -
23/07:00am 16.8 15.6 11.7 72 2.8 E 9 15 5 8 1017.4 1017.2 -
23/06:30am 15.5 14.6 11.4 76 2.2 ESE 7 11 4 6 1017.0 1016.8 -
23/06:00am 16.2 15.1 11.8 75 2.4 SE 9 13 5 7 1016.6 1016.4 -
23/05:30am 16.9 13.8 11.6 71 2.9 E 19 22 10 12 1016.2 1016.0 -
23/05:00am 17.6 16.1 11.8 69 3.2 SSE 11 13 6 7 1016.6 1016.4 -
23/04:30am 18.2 15.4 11.5 65 3.7 E 17 20 9 11 1016.4 1016.2 -
23/04:00am 19.2 16.4 11.2 60 4.4 E 17 19 9 10 1016.4 1016.2 -
23/03:30am 16.8 13.7 12.1 74 2.6 ESE 20 26 11 14 1016.8 1016.6 -
23/03:00am 16.5 15.8 12.0 75 2.5 E 7 17 4 9 1017.7 1017.5 0.0
23/02:30am 16.7 15.6 12.0 74 2.6 W 9 19 5 10 1018.4 1018.2 -
23/02:00am 16.5 16.7 12.0 75 2.5 SW 2 7 1 4 1017.8 1017.6 -
23/01:30am 18.7 17.1 11.7 64 3.9 E 11 11 6 6 1017.2 1017.0 -
23/01:00am 18.8 16.5 11.6 63 4.0 E 15 17 8 9 1017.3 1017.1 -
23/12:30am 18.7 16.8 11.9 64 3.8 ESE 13 17 7 9 1017.6 1017.4 -
23/12:00am 18.7 16.8 11.9 64 3.8 ESE 13 17 7 9 1017.6 1017.4 -
 
Date/Time
EDT
Temp
°C
App
Temp
°C
Dew
Point
Rel
Hum
%
Delta-T
°C
Wind Press
QNH
hPa
Press
MSL
hPa
Rain
since 9 am
mm
Dir
 
Spd
km/h
Gust
km/h
Spd
kts
Gust
kts
22/11:30pm 19.5 17.6 11.8 61 4.3 ESE 13 15 7 8 1017.8 1017.6 -
22/11:00pm 20.2 18.2 11.6 57 4.8 ESE 13 15 7 8 1017.9 1017.7 -
22/10:30pm 20.5 18.2 11.8 57 4.9 ESE 15 17 8 9 1017.9 1017.7 -
22/10:00pm 20.8 18.9 11.9 56 5.0 ESE 13 15 7 8 1018.1 1017.9 -
22/09:30pm 21.5 19.2 11.7 53 5.5 E 15 15 8 8 1017.9 1017.7 -
22/09:00pm 22.3 20.8 11.9 51 5.9 ESE 11 15 6 8 1017.9 1017.7 0.0
22/08:30pm 22.9 20.2 11.6 49 6.4 ESE 17 19 9 10 1017.4 1017.2 0.0
22/08:00pm 24.2 21.4 11.3 44 7.3 E 17 17 9 9 1017.0 1016.8 -
22/07:30pm 25.1 22.6 11.0 41 8.0 ESE 15 17 8 9 1016.9 1016.7 -
22/07:00pm 26.8 24.6 10.8 36 9.1 ESE 13 15 7 8 1016.8 1016.6 0.0
22/06:30pm 28.2 25.6 9.2 30 10.6 ESE 13 17 7 9 1016.9 1016.7 0.0
22/06:00pm 29.1 27.1 8.8 28 11.3 E 9 11 5 6 1017.0 1016.8 0.0
22/05:58pm 29.0 26.9 8.3 27 11.4 E 9 11 5 6 1017.0 1016.8 0.0
22/05:30pm 29.1 27.1 8.5 27 11.4 ESE 9 15 5 8 1017.0 1016.8 -
22/05:00pm 29.4 28.6 9.5 29 11.2 SW 4 7 2 4 1017.1 1016.9 -
22/04:30pm 29.0 26.9 8.1 27 11.5 E 9 15 5 8 1017.4 1017.2 -
22/04:00pm 28.9 26.9 8.5 27 11.3 W 9 15 5 8 1017.7 1017.5 0.0
22/03:30pm 29.0 27.4 10.2 31 10.7 NNE 9 19 5 10 1018.1 1017.9 0.0

Other Formats:

Comma delimited format used in spreadsheet applications
http://www.bom.gov.au/fwo/IDN60801/IDN60801.94910.axf

JavaScript Object Notation format (JSON) in row-major order
http://www.bom.gov.au/fwo/IDN60801/IDN60801.94910.json